createdAt,value
2022-09-04T00:01:45.094Z,6.53
2022-09-04T00:08:57.999Z,6.63
2022-09-04T00:15:51.308Z,14.55
2022-09-04T00:22:44.745Z,6.05
2022-09-04T00:29:42.271Z,6.30
2022-09-04T00:36:33.043Z,6.75
2022-09-04T00:44:09.067Z,6.93
2022-09-04T00:51:20.674Z,7.20
2022-09-04T00:58:36.755Z,6.72
2022-09-04T01:05:46.636Z,7.05
2022-09-04T01:12:41.697Z,6.70
2022-09-04T01:19:53.641Z,7.22
2022-09-04T01:26:50.952Z,6.85
2022-09-04T01:33:44.257Z,7.07
2022-09-04T01:40:43.817Z,7.30
2022-09-04T01:47:42.658Z,7.20
2022-09-04T01:54:46.542Z,6.80
2022-09-04T02:01:42.262Z,7.22
2022-09-04T02:08:47.370Z,7.20
2022-09-04T02:15:43.180Z,7.00
2022-09-04T02:22:42.423Z,7.10
2022-09-04T02:29:42.808Z,7.10
2022-09-04T02:36:37.797Z,7.00
2022-09-04T02:43:52.121Z,7.18
2022-09-04T03:04:37.019Z,6.70
2022-09-04T03:11:33.241Z,6.25
2022-09-04T03:25:41.204Z,13.93
2022-09-04T03:32:35.020Z,12.23
2022-09-04T03:39:29.012Z,13.20
2022-09-04T03:46:34.739Z,12.75
2022-09-04T03:53:32.377Z,9.60
2022-09-04T04:00:20.862Z,8.45
2022-09-04T04:07:27.017Z,7.30
2022-09-04T04:14:38.396Z,8.30
2022-09-04T04:21:37.313Z,7.45
2022-09-04T04:28:59.709Z,7.78
2022-09-04T04:35:55.537Z,8.30
2022-09-04T04:42:53.424Z,9.35
2022-09-04T04:50:07.191Z,9.10
2022-09-04T04:57:02.638Z,13.88
2022-09-04T05:04:05.725Z,18.40
2022-09-04T05:11:02.338Z,26.83
2022-09-04T05:17:56.530Z,29.60
2022-09-04T05:24:57.696Z,39.25
2022-09-04T05:31:56.456Z,47.67
2022-09-04T05:38:54.237Z,50.90
2022-09-04T05:46:00.050Z,45.28
2022-09-04T06:00:18.712Z,47.80
2022-09-04T06:07:15.182Z,52.80
2022-09-04T06:14:32.123Z,58.55
2022-09-04T06:22:03.029Z,52.97
2022-09-04T06:29:22.764Z,46.92
2022-09-04T06:36:49.208Z,46.97
2022-09-04T06:43:47.112Z,50.28
2022-09-04T06:50:51.425Z,42.92
2022-09-04T06:57:55.428Z,39.80
2022-09-04T07:04:54.015Z,35.20
2022-09-04T07:12:06.972Z,38.03
2022-09-04T07:19:15.822Z,32.40
2022-09-04T07:26:11.077Z,33.97
2022-09-04T07:33:04.536Z,30.20
2022-09-04T07:40:00.802Z,30.02
2022-09-04T07:46:57.677Z,26.38
2022-09-04T08:01:02.793Z,24.30
2022-09-04T08:08:12.055Z,25.23
2022-09-04T08:15:16.173Z,25.40
2022-09-04T08:22:02.153Z,25.50
2022-09-04T08:36:06.169Z,24.80
2022-09-04T08:43:35.555Z,22.63
2022-09-04T08:50:49.725Z,20.20
2022-09-04T08:58:19.804Z,23.90
2022-09-04T09:06:06.843Z,24.73
2022-09-04T09:13:32.581Z,28.35
2022-09-04T09:20:48.112Z,26.70
2022-09-04T09:28:27.203Z,28.30
2022-09-04T09:36:06.717Z,35.70
2022-09-04T09:43:43.512Z,31.77
2022-09-04T09:51:40.889Z,37.05
2022-09-04T09:59:17.006Z,32.38
2022-09-04T10:06:49.271Z,36.30
2022-09-04T10:14:11.666Z,35.05
2022-09-04T10:21:24.326Z,31.95
2022-09-04T10:28:47.565Z,26.42
2022-09-04T10:35:45.051Z,26.92
2022-09-04T10:42:48.140Z,27.83
2022-09-04T10:49:56.196Z,32.33
2022-09-04T10:56:53.029Z,27.20
2022-09-04T11:04:11.639Z,22.80
2022-09-04T11:11:18.631Z,22.52
2022-09-04T11:18:45.558Z,14.90
2022-09-04T11:26:14.161Z,17.30
2022-09-04T11:33:49.201Z,11.48
2022-09-04T11:41:24.690Z,10.83
2022-09-04T11:48:56.014Z,8.47
2022-09-04T11:56:09.717Z,6.50
2022-09-04T12:03:36.088Z,5.00
2022-09-04T12:10:38.332Z,4.90
2022-09-04T12:18:16.411Z,4.60
2022-09-04T12:25:47.137Z,5.32
2022-09-04T12:33:18.637Z,4.63
2022-09-04T12:40:34.881Z,5.10
2022-09-04T12:47:40.960Z,4.78
2022-09-04T12:54:39.252Z,4.80
2022-09-04T13:01:41.310Z,4.78
2022-09-04T13:08:47.384Z,4.50
2022-09-04T13:15:45.036Z,4.50
2022-09-04T13:22:42.672Z,4.55
2022-09-04T13:29:44.593Z,4.70
2022-09-04T13:36:44.641Z,4.53
2022-09-04T13:44:08.080Z,4.40
2022-09-04T13:51:01.841Z,3.97
2022-09-04T13:57:57.603Z,4.13
2022-09-04T14:04:50.850Z,5.10
2022-09-04T14:12:03.881Z,4.43
2022-09-04T14:19:10.994Z,4.40
2022-09-04T14:26:12.464Z,4.72
2022-09-04T14:33:22.057Z,4.10
2022-09-04T14:40:17.773Z,4.30
2022-09-04T14:47:17.267Z,4.90
2022-09-04T14:54:06.695Z,4.10
2022-09-04T15:01:07.017Z,4.80
2022-09-04T15:08:00.577Z,4.50
2022-09-04T15:14:52.651Z,4.60
2022-09-04T15:21:48.565Z,4.63
2022-09-04T15:28:43.686Z,4.97
2022-09-04T15:35:34.142Z,4.47
2022-09-04T15:42:39.493Z,3.60
2022-09-04T15:49:42.094Z,4.10
2022-09-04T15:56:42.012Z,3.88
2022-09-04T16:03:36.652Z,3.63
2022-09-04T16:10:27.288Z,3.95
2022-09-04T16:17:25.354Z,4.03
2022-09-04T16:24:17.865Z,3.70
2022-09-04T16:31:06.366Z,4.32
2022-09-04T16:38:01.964Z,4.25
2022-09-04T16:44:54.104Z,4.35
2022-09-04T16:51:44.534Z,4.13
2022-09-04T16:58:46.174Z,4.03
2022-09-04T17:05:40.067Z,4.32
2022-09-04T17:12:47.229Z,4.10
2022-09-04T17:19:35.700Z,4.18
2022-09-04T17:29:13.162Z,3.50
2022-09-04T17:40:32.086Z,3.90
2022-09-04T17:41:36.072Z,3.80
2022-09-04T17:48:26.528Z,3.70
2022-09-04T17:55:16.691Z,4.25
2022-09-04T18:02:17.309Z,5.43
2022-09-04T18:09:11.032Z,4.13
2022-09-04T18:16:07.720Z,20.15
2022-09-04T18:23:50.987Z,5.75
2022-09-04T18:37:09.139Z,5.43
2022-09-04T18:37:58.519Z,5.60
2022-09-04T18:50:39.517Z,5.45
2022-09-04T18:52:03.858Z,6.30
2022-09-04T18:59:00.760Z,6.13
2022-09-04T19:05:51.868Z,7.10
2022-09-04T19:13:04.328Z,5.00
2022-09-04T19:19:57.092Z,5.40
2022-09-04T19:26:54.321Z,5.38
2022-09-04T19:33:46.288Z,5.22
2022-09-04T19:46:09.033Z,5.05
2022-09-04T19:48:03.896Z,4.95
2022-09-04T19:54:55.111Z,5.03
2022-09-04T20:02:03.715Z,4.93
2022-09-04T20:08:57.642Z,5.15
2022-09-04T20:15:53.696Z,5.15
2022-09-04T20:22:46.263Z,5.65
2022-09-04T20:29:40.483Z,6.03
2022-09-04T20:36:35.412Z,5.00
2022-09-04T20:43:31.784Z,5.10
2022-09-04T20:52:49.775Z,5.00
2022-09-04T21:03:12.594Z,4.80
2022-09-04T21:06:12.336Z,5.15
2022-09-04T21:13:14.327Z,5.22
2022-09-04T21:20:59.902Z,5.25
2022-09-04T21:28:27.568Z,5.05
2022-09-04T21:35:24.035Z,5.40
2022-09-04T21:42:44.548Z,5.35
2022-09-04T21:50:23.384Z,5.25
2022-09-04T22:02:28.427Z,5.47
2022-09-04T22:05:12.007Z,5.50
2022-09-04T22:13:37.850Z,5.07
2022-09-04T22:19:44.132Z,5.40
2022-09-04T22:26:54.378Z,6.65
2022-09-04T22:34:17.705Z,6.25
2022-09-04T22:41:41.194Z,7.05
2022-09-04T22:49:23.544Z,6.63
2022-09-04T22:56:24.736Z,6.25
2022-09-04T23:03:48.235Z,7.00
2022-09-04T23:13:54.866Z,6.63
2022-09-04T23:20:00.632Z,9.50
2022-09-04T23:26:41.908Z,10.50
2022-09-04T23:33:50.047Z,7.32
2022-09-04T23:40:48.495Z,7.28
2022-09-04T23:48:00.953Z,6.35
2022-09-04T23:55:25.392Z,6.78
